sensor_id;sensor_type;location;lat;lon;timestamp;pressure;altitude;pressure_sealevel;temperature
16956;BMP180;8594;52.052;8.354;2022-10-22T00:02:09;100065.00;;;16.40
16956;BMP180;8594;52.052;8.354;2022-10-22T00:04:36;100075.00;;;16.50
16956;BMP180;8594;52.052;8.354;2022-10-22T00:07:03;100070.00;;;16.40
16956;BMP180;8594;52.052;8.354;2022-10-22T00:09:29;100070.00;;;16.50
16956;BMP180;8594;52.052;8.354;2022-10-22T00:11:57;100065.00;;;16.70
16956;BMP180;8594;52.052;8.354;2022-10-22T00:14:25;100078.00;;;16.90
16956;BMP180;8594;52.052;8.354;2022-10-22T00:16:52;100075.00;;;16.80
16956;BMP180;8594;52.052;8.354;2022-10-22T00:19:19;100077.00;;;16.80
16956;BMP180;8594;52.052;8.354;2022-10-22T00:21:46;100084.00;;;16.70
16956;BMP180;8594;52.052;8.354;2022-10-22T00:24:13;100078.00;;;16.70
16956;BMP180;8594;52.052;8.354;2022-10-22T00:26:40;100078.00;;;16.60
16956;BMP180;8594;52.052;8.354;2022-10-22T00:29:07;100068.00;;;16.60
16956;BMP180;8594;52.052;8.354;2022-10-22T00:31:36;100067.00;;;16.60
16956;BMP180;8594;52.052;8.354;2022-10-22T00:34:03;100084.00;;;16.70
16956;BMP180;8594;52.052;8.354;2022-10-22T00:36:29;100086.00;;;16.50
16956;BMP180;8594;52.052;8.354;2022-10-22T00:38:56;100083.00;;;16.70
16956;BMP180;8594;52.052;8.354;2022-10-22T00:41:23;100089.00;;;16.60
16956;BMP180;8594;52.052;8.354;2022-10-22T00:43:59;100091.00;;;16.60
16956;BMP180;8594;52.052;8.354;2022-10-22T00:46:27;100106.00;;;16.60
16956;BMP180;8594;52.052;8.354;2022-10-22T00:48:58;100103.00;;;16.50
16956;BMP180;8594;52.052;8.354;2022-10-22T00:51:31;100099.00;;;16.40
16956;BMP180;8594;52.052;8.354;2022-10-22T00:54:03;100101.00;;;16.60
16956;BMP180;8594;52.052;8.354;2022-10-22T00:56:32;100107.00;;;16.50
16956;BMP180;8594;52.052;8.354;2022-10-22T00:59:01;100106.00;;;16.50
16956;BMP180;8594;52.052;8.354;2022-10-22T01:01:30;100113.00;;;16.50
16956;BMP180;8594;52.052;8.354;2022-10-22T01:03:59;100118.00;;;16.90
16956;BMP180;8594;52.052;8.354;2022-10-22T01:06:30;100110.00;;;17.00
16956;BMP180;8594;52.052;8.354;2022-10-22T01:09:11;100103.00;;;17.10
16956;BMP180;8594;52.052;8.354;2022-10-22T01:11:54;100094.00;;;17.10
16956;BMP180;8594;52.052;8.354;2022-10-22T01:14:38;100099.00;;;17.10
16956;BMP180;8594;52.052;8.354;2022-10-22T01:17:17;100098.00;;;16.90
16956;BMP180;8594;52.052;8.354;2022-10-22T01:20:02;100095.00;;;16.70
16956;BMP180;8594;52.052;8.354;2022-10-22T01:22:38;100092.00;;;16.70
16956;BMP180;8594;52.052;8.354;2022-10-22T01:25:15;100096.00;;;16.90
16956;BMP180;8594;52.052;8.354;2022-10-22T01:28:00;100092.00;;;17.00
16956;BMP180;8594;52.052;8.354;2022-10-22T01:30:32;100084.00;;;17.00
16956;BMP180;8594;52.052;8.354;2022-10-22T01:33:05;100080.00;;;16.80
16956;BMP180;8594;52.052;8.354;2022-10-22T01:35:38;100086.00;;;16.60
16956;BMP180;8594;52.052;8.354;2022-10-22T01:38:12;100090.00;;;16.70
16956;BMP180;8594;52.052;8.354;2022-10-22T01:40:41;100089.00;;;16.80
16956;BMP180;8594;52.052;8.354;2022-10-22T01:43:10;100089.00;;;16.60
16956;BMP180;8594;52.052;8.354;2022-10-22T01:45:43;100090.00;;;16.50
16956;BMP180;8594;52.052;8.354;2022-10-22T01:48:29;100088.00;;;16.70
16956;BMP180;8594;52.052;8.354;2022-10-22T01:51:18;100091.00;;;16.90
16956;BMP180;8594;52.052;8.354;2022-10-22T01:53:53;100081.00;;;17.30
16956;BMP180;8594;52.052;8.354;2022-10-22T01:56:53;100080.00;;;17.40
16956;BMP180;8594;52.052;8.354;2022-10-22T01:59:33;100085.00;;;17.40
16956;BMP180;8594;52.052;8.354;2022-10-22T02:02:17;100085.00;;;17.30
16956;BMP180;8594;52.052;8.354;2022-10-22T02:04:52;100081.00;;;17.10
16956;BMP180;8594;52.052;8.354;2022-10-22T02:07:28;100092.00;;;17.00
16956;BMP180;8594;52.052;8.354;2022-10-22T02:09:58;100093.00;;;16.90
16956;BMP180;8594;52.052;8.354;2022-10-22T02:12:28;100088.00;;;16.80
16956;BMP180;8594;52.052;8.354;2022-10-22T02:14:57;100098.00;;;16.90
16956;BMP180;8594;52.052;8.354;2022-10-22T02:17:32;100080.00;;;17.10
16956;BMP180;8594;52.052;8.354;2022-10-22T02:20:05;100075.00;;;17.10
16956;BMP180;8594;52.052;8.354;2022-10-22T02:22:33;100081.00;;;16.90
16956;BMP180;8594;52.052;8.354;2022-10-22T02:25:02;100065.00;;;16.90
16956;BMP180;8594;52.052;8.354;2022-10-22T02:27:34;100061.00;;;16.90
16956;BMP180;8594;52.052;8.354;2022-10-22T02:30:08;100059.00;;;16.70
16956;BMP180;8594;52.052;8.354;2022-10-22T02:32:47;100054.00;;;16.60
16956;BMP180;8594;52.052;8.354;2022-10-22T02:35:22;100052.00;;;16.60
16956;BMP180;8594;52.052;8.354;2022-10-22T02:37:51;100056.00;;;16.50
16956;BMP180;8594;52.052;8.354;2022-10-22T02:40:20;100069.00;;;16.50
16956;BMP180;8594;52.052;8.354;2022-10-22T02:42:49;100064.00;;;16.30
16956;BMP180;8594;52.052;8.354;2022-10-22T02:45:17;100058.00;;;16.30
16956;BMP180;8594;52.052;8.354;2022-10-22T02:47:46;100054.00;;;16.90
16956;BMP180;8594;52.052;8.354;2022-10-22T02:50:13;100048.00;;;17.00
16956;BMP180;8594;52.052;8.354;2022-10-22T02:52:40;100050.00;;;16.80
16956;BMP180;8594;52.052;8.354;2022-10-22T02:55:08;100053.00;;;16.40
16956;BMP180;8594;52.052;8.354;2022-10-22T02:57:35;100057.00;;;16.30
16956;BMP180;8594;52.052;8.354;2022-10-22T03:00:04;100057.00;;;16.30
16956;BMP180;8594;52.052;8.354;2022-10-22T03:02:31;100060.00;;;16.20
16956;BMP180;8594;52.052;8.354;2022-10-22T03:04:59;100064.00;;;16.20
16956;BMP180;8594;52.052;8.354;2022-10-22T03:07:26;100066.00;;;16.00
16956;BMP180;8594;52.052;8.354;2022-10-22T03:09:53;100080.00;;;16.00
16956;BMP180;8594;52.052;8.354;2022-10-22T03:12:20;100076.00;;;16.10
16956;BMP180;8594;52.052;8.354;2022-10-22T03:14:46;100081.00;;;16.30
16956;BMP180;8594;52.052;8.354;2022-10-22T03:17:14;100074.00;;;16.70
16956;BMP180;8594;52.052;8.354;2022-10-22T03:19:40;100084.00;;;16.40
16956;BMP180;8594;52.052;8.354;2022-10-22T03:22:14;100079.00;;;16.00
16956;BMP180;8594;52.052;8.354;2022-10-22T03:24:45;100095.00;;;16.10
16956;BMP180;8594;52.052;8.354;2022-10-22T03:27:16;100097.00;;;15.80
16956;BMP180;8594;52.052;8.354;2022-10-22T03:29:44;100102.00;;;15.80
16956;BMP180;8594;52.052;8.354;2022-10-22T03:32:12;100101.00;;;16.00
16956;BMP180;8594;52.052;8.354;2022-10-22T03:34:39;100107.00;;;15.60
16956;BMP180;8594;52.052;8.354;2022-10-22T03:37:05;100114.00;;;15.90
16956;BMP180;8594;52.052;8.354;2022-10-22T03:39:35;100101.00;;;16.20
16956;BMP180;8594;52.052;8.354;2022-10-22T03:42:05;100111.00;;;16.10
16956;BMP180;8594;52.052;8.354;2022-10-22T03:44:35;100110.00;;;16.30
16956;BMP180;8594;52.052;8.354;2022-10-22T03:47:02;100107.00;;;16.60
16956;BMP180;8594;52.052;8.354;2022-10-22T03:49:29;100114.00;;;16.10
16956;BMP180;8594;52.052;8.354;2022-10-22T03:51:56;100111.00;;;15.90
16956;BMP180;8594;52.052;8.354;2022-10-22T03:54:23;100106.00;;;15.70
16956;BMP180;8594;52.052;8.354;2022-10-22T03:56:51;100111.00;;;15.70
16956;BMP180;8594;52.052;8.354;2022-10-22T03:59:18;100114.00;;;15.80
16956;BMP180;8594;52.052;8.354;2022-10-22T04:01:45;100115.00;;;15.70
16956;BMP180;8594;52.052;8.354;2022-10-22T04:04:12;100111.00;;;15.80
16956;BMP180;8594;52.052;8.354;2022-10-22T04:06:39;100120.00;;;15.60
16956;BMP180;8594;52.052;8.354;2022-10-22T04:09:06;100122.00;;;15.60
16956;BMP180;8594;52.052;8.354;2022-10-22T04:11:33;100119.00;;;15.70
16956;BMP180;8594;52.052;8.354;2022-10-22T04:14:01;100120.00;;;16.00
16956;BMP180;8594;52.052;8.354;2022-10-22T04:16:28;100120.00;;;16.20
16956;BMP180;8594;52.052;8.354;2022-10-22T04:18:57;100127.00;;;16.00
16956;BMP180;8594;52.052;8.354;2022-10-22T04:21:24;100127.00;;;15.70
16956;BMP180;8594;52.052;8.354;2022-10-22T04:23:52;100125.00;;;15.90
16956;BMP180;8594;52.052;8.354;2022-10-22T04:26:19;100128.00;;;15.90
16956;BMP180;8594;52.052;8.354;2022-10-22T04:28:48;100124.00;;;15.80
16956;BMP180;8594;52.052;8.354;2022-10-22T04:31:19;100127.00;;;15.80
16956;BMP180;8594;52.052;8.354;2022-10-22T04:33:51;100120.00;;;15.90
16956;BMP180;8594;52.052;8.354;2022-10-22T04:36:18;100120.00;;;15.90
16956;BMP180;8594;52.052;8.354;2022-10-22T04:38:46;100122.00;;;15.90
16956;BMP180;8594;52.052;8.354;2022-10-22T04:41:21;100116.00;;;16.20
16956;BMP180;8594;52.052;8.354;2022-10-22T04:43:48;100123.00;;;15.90
16956;BMP180;8594;52.052;8.354;2022-10-22T04:46:17;100124.00;;;16.00
16956;BMP180;8594;52.052;8.354;2022-10-22T04:48:45;100123.00;;;15.80
16956;BMP180;8594;52.052;8.354;2022-10-22T04:51:15;100124.00;;;15.80
16956;BMP180;8594;52.052;8.354;2022-10-22T04:53:43;100124.00;;;15.80
16956;BMP180;8594;52.052;8.354;2022-10-22T04:56:13;100126.00;;;15.70
16956;BMP180;8594;52.052;8.354;2022-10-22T04:58:42;100122.00;;;16.20
16956;BMP180;8594;52.052;8.354;2022-10-22T05:01:12;100124.00;;;16.00
16956;BMP180;8594;52.052;8.354;2022-10-22T05:03:41;100127.00;;;15.80
16956;BMP180;8594;52.052;8.354;2022-10-22T05:06:09;100128.00;;;15.90
16956;BMP180;8594;52.052;8.354;2022-10-22T05:08:36;100125.00;;;15.80
16956;BMP180;8594;52.052;8.354;2022-10-22T05:11:11;100134.00;;;15.80
16956;BMP180;8594;52.052;8.354;2022-10-22T05:13:38;100124.00;;;15.60
16956;BMP180;8594;52.052;8.354;2022-10-22T05:16:06;100132.00;;;15.70
16956;BMP180;8594;52.052;8.354;2022-10-22T05:18:34;100135.00;;;15.70
16956;BMP180;8594;52.052;8.354;2022-10-22T05:21:07;100138.00;;;15.70
16956;BMP180;8594;52.052;8.354;2022-10-22T05:23:34;100137.00;;;15.60
16956;BMP180;8594;52.052;8.354;2022-10-22T05:26:02;100136.00;;;15.50
16956;BMP180;8594;52.052;8.354;2022-10-22T05:28:29;100142.00;;;15.60
16956;BMP180;8594;52.052;8.354;2022-10-22T05:30:58;100147.00;;;15.70
16956;BMP180;8594;52.052;8.354;2022-10-22T05:33:27;100148.00;;;15.70
16956;BMP180;8594;52.052;8.354;2022-10-22T05:35:55;100153.00;;;15.80
16956;BMP180;8594;52.052;8.354;2022-10-22T05:38:23;100159.00;;;15.80
16956;BMP180;8594;52.052;8.354;2022-10-22T05:40:59;100159.00;;;15.70
16956;BMP180;8594;52.052;8.354;2022-10-22T05:43:26;100162.00;;;15.70
16956;BMP180;8594;52.052;8.354;2022-10-22T05:45:54;100159.00;;;15.70
16956;BMP180;8594;52.052;8.354;2022-10-22T05:48:21;100157.00;;;15.70
16956;BMP180;8594;52.052;8.354;2022-10-22T05:50:47;100161.00;;;15.80
16956;BMP180;8594;52.052;8.354;2022-10-22T05:53:16;100164.00;;;15.90
16956;BMP180;8594;52.052;8.354;2022-10-22T05:55:45;100162.00;;;16.00
16956;BMP180;8594;52.052;8.354;2022-10-22T05:58:12;100164.00;;;15.60
16956;BMP180;8594;52.052;8.354;2022-10-22T06:00:40;100167.00;;;16.20
16956;BMP180;8594;52.052;8.354;2022-10-22T06:03:07;100169.00;;;16.10
16956;BMP180;8594;52.052;8.354;2022-10-22T06:05:35;100178.00;;;16.00
16956;BMP180;8594;52.052;8.354;2022-10-22T06:08:03;100173.00;;;16.00
16956;BMP180;8594;52.052;8.354;2022-10-22T06:10:30;100181.00;;;16.00
16956;BMP180;8594;52.052;8.354;2022-10-22T06:12:58;100182.00;;;15.80
16956;BMP180;8594;52.052;8.354;2022-10-22T06:15:26;100189.00;;;15.90
16956;BMP180;8594;52.052;8.354;2022-10-22T06:17:53;100191.00;;;16.00
16956;BMP180;8594;52.052;8.354;2022-10-22T06:20:20;100191.00;;;15.90
16956;BMP180;8594;52.052;8.354;2022-10-22T06:22:47;100203.00;;;16.10
16956;BMP180;8594;52.052;8.354;2022-10-22T06:25:14;100208.00;;;15.90
16956;BMP180;8594;52.052;8.354;2022-10-22T06:27:41;100207.00;;;16.00
16956;BMP180;8594;52.052;8.354;2022-10-22T06:30:10;100214.00;;;16.00
16956;BMP180;8594;52.052;8.354;2022-10-22T06:32:37;100225.00;;;16.10
16956;BMP180;8594;52.052;8.354;2022-10-22T06:35:05;100220.00;;;16.10
16956;BMP180;8594;52.052;8.354;2022-10-22T06:37:32;100221.00;;;16.30
16956;BMP180;8594;52.052;8.354;2022-10-22T06:39:59;100225.00;;;16.50
16956;BMP180;8594;52.052;8.354;2022-10-22T06:42:27;100225.00;;;16.80
16956;BMP180;8594;52.052;8.354;2022-10-22T06:44:55;100234.00;;;16.90
16956;BMP180;8594;52.052;8.354;2022-10-22T06:47:24;100237.00;;;16.90
16956;BMP180;8594;52.052;8.354;2022-10-22T06:49:51;100235.00;;;17.00
16956;BMP180;8594;52.052;8.354;2022-10-22T06:52:18;100238.00;;;17.40
16956;BMP180;8594;52.052;8.354;2022-10-22T06:54:44;100233.00;;;17.30
16956;BMP180;8594;52.052;8.354;2022-10-22T06:57:11;100220.00;;;17.10
16956;BMP180;8594;52.052;8.354;2022-10-22T06:59:38;100233.00;;;17.40
16956;BMP180;8594;52.052;8.354;2022-10-22T07:02:05;100242.00;;;17.60
16956;BMP180;8594;52.052;8.354;2022-10-22T07:04:35;100251.00;;;17.40
16956;BMP180;8594;52.052;8.354;2022-10-22T07:07:02;100245.00;;;18.10
16956;BMP180;8594;52.052;8.354;2022-10-22T07:09:29;100245.00;;;19.00
16956;BMP180;8594;52.052;8.354;2022-10-22T07:11:56;100247.00;;;19.50
16956;BMP180;8594;52.052;8.354;2022-10-22T07:14:23;100255.00;;;20.00
16956;BMP180;8594;52.052;8.354;2022-10-22T07:16:50;100257.00;;;20.50
16956;BMP180;8594;52.052;8.354;2022-10-22T07:19:16;100265.00;;;20.60
16956;BMP180;8594;52.052;8.354;2022-10-22T07:21:45;100261.00;;;20.60
16956;BMP180;8594;52.052;8.354;2022-10-22T07:24:12;100269.00;;;20.90
16956;BMP180;8594;52.052;8.354;2022-10-22T07:26:39;100270.00;;;20.00
16956;BMP180;8594;52.052;8.354;2022-10-22T07:29:06;100268.00;;;20.00
16956;BMP180;8594;52.052;8.354;2022-10-22T07:31:34;100285.00;;;19.20
16956;BMP180;8594;52.052;8.354;2022-10-22T07:34:01;100281.00;;;19.60
16956;BMP180;8594;52.052;8.354;2022-10-22T07:36:28;100278.00;;;19.60
16956;BMP180;8594;52.052;8.354;2022-10-22T07:38:58;100289.00;;;19.30
16956;BMP180;8594;52.052;8.354;2022-10-22T07:41:27;100285.00;;;20.00
16956;BMP180;8594;52.052;8.354;2022-10-22T07:43:54;100285.00;;;20.80
16956;BMP180;8594;52.052;8.354;2022-10-22T07:46:22;100279.00;;;21.30
16956;BMP180;8594;52.052;8.354;2022-10-22T07:48:49;100272.00;;;21.10
16956;BMP180;8594;52.052;8.354;2022-10-22T07:51:16;100282.00;;;21.70
16956;BMP180;8594;52.052;8.354;2022-10-22T07:53:43;100286.00;;;22.10
16956;BMP180;8594;52.052;8.354;2022-10-22T07:56:11;100286.00;;;22.60
16956;BMP180;8594;52.052;8.354;2022-10-22T07:58:38;100284.00;;;22.60
16956;BMP180;8594;52.052;8.354;2022-10-22T08:01:06;100290.00;;;22.70
16956;BMP180;8594;52.052;8.354;2022-10-22T08:03:33;100294.00;;;22.80
16956;BMP180;8594;52.052;8.354;2022-10-22T08:06:01;100294.00;;;23.40
16956;BMP180;8594;52.052;8.354;2022-10-22T08:08:28;100290.00;;;23.40
16956;BMP180;8594;52.052;8.354;2022-10-22T08:10:57;100298.00;;;23.70
16956;BMP180;8594;52.052;8.354;2022-10-22T08:13:26;100303.00;;;23.90
16956;BMP180;8594;52.052;8.354;2022-10-22T08:15:55;100309.00;;;23.90
16956;BMP180;8594;52.052;8.354;2022-10-22T08:18:22;100307.00;;;24.20
16956;BMP180;8594;52.052;8.354;2022-10-22T08:20:50;100319.00;;;23.30
16956;BMP180;8594;52.052;8.354;2022-10-22T08:23:17;100313.00;;;23.80
16956;BMP180;8594;52.052;8.354;2022-10-22T08:25:44;100315.00;;;23.70
16956;BMP180;8594;52.052;8.354;2022-10-22T08:28:11;100332.00;;;23.70
16956;BMP180;8594;52.052;8.354;2022-10-22T08:30:39;100337.00;;;22.70
16956;BMP180;8594;52.052;8.354;2022-10-22T08:33:07;100312.00;;;23.70
16956;BMP180;8594;52.052;8.354;2022-10-22T08:35:34;100316.00;;;23.40
16956;BMP180;8594;52.052;8.354;2022-10-22T08:38:01;100330.00;;;23.80
16956;BMP180;8594;52.052;8.354;2022-10-22T08:40:31;100345.00;;;24.20
16956;BMP180;8594;52.052;8.354;2022-10-22T08:43:35;100339.00;;;24.20
16956;BMP180;8594;52.052;8.354;2022-10-22T08:46:32;100342.00;;;24.40
16956;BMP180;8594;52.052;8.354;2022-10-22T08:49:08;100339.00;;;24.40
16956;BMP180;8594;52.052;8.354;2022-10-22T08:51:38;100351.00;;;23.60
16956;BMP180;8594;52.052;8.354;2022-10-22T08:54:27;100345.00;;;24.10
16956;BMP180;8594;52.052;8.354;2022-10-22T08:57:21;100345.00;;;24.00
16956;BMP180;8594;52.052;8.354;2022-10-22T08:59:56;100344.00;;;24.20
16956;BMP180;8594;52.052;8.354;2022-10-22T09:02:39;100349.00;;;23.70
16956;BMP180;8594;52.052;8.354;2022-10-22T09:05:34;100350.00;;;23.30
16956;BMP180;8594;52.052;8.354;2022-10-22T09:08:09;100354.00;;;23.20
16956;BMP180;8594;52.052;8.354;2022-10-22T09:10:41;100343.00;;;23.50
16956;BMP180;8594;52.052;8.354;2022-10-22T09:13:13;100360.00;;;22.80
16956;BMP180;8594;52.052;8.354;2022-10-22T09:15:41;100341.00;;;22.50
16956;BMP180;8594;52.052;8.354;2022-10-22T09:18:27;100341.00;;;24.10
16956;BMP180;8594;52.052;8.354;2022-10-22T09:21:02;100344.00;;;24.20
16956;BMP180;8594;52.052;8.354;2022-10-22T09:23:49;100347.00;;;24.70
16956;BMP180;8594;52.052;8.354;2022-10-22T09:26:18;100354.00;;;25.20
16956;BMP180;8594;52.052;8.354;2022-10-22T09:28:49;100362.00;;;24.60
16956;BMP180;8594;52.052;8.354;2022-10-22T09:31:17;100357.00;;;25.00
16956;BMP180;8594;52.052;8.354;2022-10-22T09:33:49;100353.00;;;24.90
16956;BMP180;8594;52.052;8.354;2022-10-22T09:36:21;100366.00;;;24.80
16956;BMP180;8594;52.052;8.354;2022-10-22T09:38:51;100359.00;;;25.20
16956;BMP180;8594;52.052;8.354;2022-10-22T09:41:22;100371.00;;;24.40
16956;BMP180;8594;52.052;8.354;2022-10-22T09:43:50;100376.00;;;25.10
16956;BMP180;8594;52.052;8.354;2022-10-22T09:46:20;100366.00;;;24.60
16956;BMP180;8594;52.052;8.354;2022-10-22T09:48:59;100374.00;;;23.20
16956;BMP180;8594;52.052;8.354;2022-10-22T09:51:40;100374.00;;;24.20
16956;BMP180;8594;52.052;8.354;2022-10-22T09:54:17;100383.00;;;24.00
16956;BMP180;8594;52.052;8.354;2022-10-22T09:56:55;100392.00;;;23.70
16956;BMP180;8594;52.052;8.354;2022-10-22T09:59:32;100395.00;;;22.70
16956;BMP180;8594;52.052;8.354;2022-10-22T10:02:10;100393.00;;;22.10
16956;BMP180;8594;52.052;8.354;2022-10-22T10:04:48;100400.00;;;21.90
16956;BMP180;8594;52.052;8.354;2022-10-22T10:07:21;100408.00;;;22.20
16956;BMP180;8594;52.052;8.354;2022-10-22T10:09:50;100412.00;;;22.30
16956;BMP180;8594;52.052;8.354;2022-10-22T10:12:33;100409.00;;;22.10
16956;BMP180;8594;52.052;8.354;2022-10-22T10:15:13;100412.00;;;22.60
16956;BMP180;8594;52.052;8.354;2022-10-22T10:17:54;100403.00;;;23.00
16956;BMP180;8594;52.052;8.354;2022-10-22T10:20:39;100402.00;;;23.60
16956;BMP180;8594;52.052;8.354;2022-10-22T10:23:17;100393.00;;;23.70
16956;BMP180;8594;52.052;8.354;2022-10-22T10:25:57;100402.00;;;22.90
16956;BMP180;8594;52.052;8.354;2022-10-22T10:28:47;100404.00;;;23.30
16956;BMP180;8594;52.052;8.354;2022-10-22T10:31:28;100408.00;;;22.90
16956;BMP180;8594;52.052;8.354;2022-10-22T10:34:09;100422.00;;;23.30
16956;BMP180;8594;52.052;8.354;2022-10-22T10:36:52;100421.00;;;22.80
16956;BMP180;8594;52.052;8.354;2022-10-22T10:39:32;100424.00;;;22.70
16956;BMP180;8594;52.052;8.354;2022-10-22T10:42:11;100417.00;;;22.00
16956;BMP180;8594;52.052;8.354;2022-10-22T10:44:56;100427.00;;;22.80
16956;BMP180;8594;52.052;8.354;2022-10-22T10:47:55;100425.00;;;22.90
16956;BMP180;8594;52.052;8.354;2022-10-22T10:50:35;100421.00;;;22.20
16956;BMP180;8594;52.052;8.354;2022-10-22T10:53:13;100430.00;;;22.20
16956;BMP180;8594;52.052;8.354;2022-10-22T10:55:58;100426.00;;;22.10
16956;BMP180;8594;52.052;8.354;2022-10-22T10:58:38;100430.00;;;22.20
16956;BMP180;8594;52.052;8.354;2022-10-22T11:01:18;100424.00;;;21.80
16956;BMP180;8594;52.052;8.354;2022-10-22T11:04:23;100440.00;;;22.10
16956;BMP180;8594;52.052;8.354;2022-10-22T11:07:04;100437.00;;;21.90
16956;BMP180;8594;52.052;8.354;2022-10-22T11:09:38;100431.00;;;22.10
16956;BMP180;8594;52.052;8.354;2022-10-22T11:12:14;100427.00;;;22.30
16956;BMP180;8594;52.052;8.354;2022-10-22T11:14:56;100431.00;;;22.30
16956;BMP180;8594;52.052;8.354;2022-10-22T11:17:31;100441.00;;;22.20
16956;BMP180;8594;52.052;8.354;2022-10-22T11:20:11;100440.00;;;22.60
16956;BMP180;8594;52.052;8.354;2022-10-22T11:22:46;100457.00;;;22.70
16956;BMP180;8594;52.052;8.354;2022-10-22T11:25:21;100445.00;;;21.80
16956;BMP180;8594;52.052;8.354;2022-10-22T11:27:55;100437.00;;;22.60
16956;BMP180;8594;52.052;8.354;2022-10-22T11:30:25;100430.00;;;23.30
16956;BMP180;8594;52.052;8.354;2022-10-22T11:32:57;100445.00;;;23.30
16956;BMP180;8594;52.052;8.354;2022-10-22T11:35:30;100448.00;;;23.00
16956;BMP180;8594;52.052;8.354;2022-10-22T11:38:02;100451.00;;;22.90
16956;BMP180;8594;52.052;8.354;2022-10-22T11:40:36;100441.00;;;22.40
16956;BMP180;8594;52.052;8.354;2022-10-22T11:43:05;100445.00;;;22.90
16956;BMP180;8594;52.052;8.354;2022-10-22T11:45:37;100454.00;;;23.00
16956;BMP180;8594;52.052;8.354;2022-10-22T11:48:16;100446.00;;;22.70
16956;BMP180;8594;52.052;8.354;2022-10-22T11:50:48;100439.00;;;22.20
16956;BMP180;8594;52.052;8.354;2022-10-22T11:53:27;100445.00;;;22.70
16956;BMP180;8594;52.052;8.354;2022-10-22T11:56:03;100447.00;;;21.90
16956;BMP180;8594;52.052;8.354;2022-10-22T11:58:38;100438.00;;;21.60
16956;BMP180;8594;52.052;8.354;2022-10-22T12:01:22;100442.00;;;21.40
16956;BMP180;8594;52.052;8.354;2022-10-22T12:03:51;100443.00;;;21.60
16956;BMP180;8594;52.052;8.354;2022-10-22T12:06:22;100451.00;;;21.60
16956;BMP180;8594;52.052;8.354;2022-10-22T12:08:58;100454.00;;;21.40
16956;BMP180;8594;52.052;8.354;2022-10-22T12:11:37;100451.00;;;21.40
16956;BMP180;8594;52.052;8.354;2022-10-22T12:14:19;100461.00;;;21.10
16956;BMP180;8594;52.052;8.354;2022-10-22T12:16:54;100457.00;;;20.90
16956;BMP180;8594;52.052;8.354;2022-10-22T12:19:28;100453.00;;;20.80
16956;BMP180;8594;52.052;8.354;2022-10-22T12:21:59;100456.00;;;21.10
16956;BMP180;8594;52.052;8.354;2022-10-22T12:24:33;100453.00;;;21.30
16956;BMP180;8594;52.052;8.354;2022-10-22T12:27:02;100449.00;;;21.40
16956;BMP180;8594;52.052;8.354;2022-10-22T12:29:32;100446.00;;;21.30
16956;BMP180;8594;52.052;8.354;2022-10-22T12:32:03;100449.00;;;21.00
16956;BMP180;8594;52.052;8.354;2022-10-22T12:34:30;100447.00;;;21.60
16956;BMP180;8594;52.052;8.354;2022-10-22T12:36:57;100446.00;;;22.00
16956;BMP180;8594;52.052;8.354;2022-10-22T12:39:26;100449.00;;;21.40
16956;BMP180;8594;52.052;8.354;2022-10-22T12:41:54;100451.00;;;21.50
16956;BMP180;8594;52.052;8.354;2022-10-22T12:44:22;100457.00;;;21.40
16956;BMP180;8594;52.052;8.354;2022-10-22T12:46:50;100456.00;;;21.70
16956;BMP180;8594;52.052;8.354;2022-10-22T12:49:20;100458.00;;;22.00
16956;BMP180;8594;52.052;8.354;2022-10-22T12:51:48;100463.00;;;21.70
16956;BMP180;8594;52.052;8.354;2022-10-22T12:54:24;100457.00;;;21.70
16956;BMP180;8594;52.052;8.354;2022-10-22T12:56:53;100457.00;;;22.00
16956;BMP180;8594;52.052;8.354;2022-10-22T12:59:25;100451.00;;;21.10
16956;BMP180;8594;52.052;8.354;2022-10-22T13:01:53;100455.00;;;21.50
16956;BMP180;8594;52.052;8.354;2022-10-22T13:04:31;100461.00;;;21.00
16956;BMP180;8594;52.052;8.354;2022-10-22T13:07:17;100458.00;;;21.20
16956;BMP180;8594;52.052;8.354;2022-10-22T13:09:47;100457.00;;;21.20
16956;BMP180;8594;52.052;8.354;2022-10-22T13:12:25;100454.00;;;20.80
16956;BMP180;8594;52.052;8.354;2022-10-22T13:14:54;100464.00;;;20.90
16956;BMP180;8594;52.052;8.354;2022-10-22T13:17:38;100469.00;;;20.90
16956;BMP180;8594;52.052;8.354;2022-10-22T13:20:18;100469.00;;;20.80
16956;BMP180;8594;52.052;8.354;2022-10-22T13:22:57;100470.00;;;20.80
16956;BMP180;8594;52.052;8.354;2022-10-22T13:25:28;100472.00;;;20.70
16956;BMP180;8594;52.052;8.354;2022-10-22T13:27:58;100476.00;;;20.60
16956;BMP180;8594;52.052;8.354;2022-10-22T13:30:29;100472.00;;;20.60
16956;BMP180;8594;52.052;8.354;2022-10-22T13:32:59;100474.00;;;20.50
16956;BMP180;8594;52.052;8.354;2022-10-22T13:35:30;100478.00;;;20.50
16956;BMP180;8594;52.052;8.354;2022-10-22T13:37:57;100489.00;;;20.50
16956;BMP180;8594;52.052;8.354;2022-10-22T13:40:25;100492.00;;;19.90
16956;BMP180;8594;52.052;8.354;2022-10-22T13:42:53;100489.00;;;19.50
16956;BMP180;8594;52.052;8.354;2022-10-22T13:45:20;100495.00;;;19.50
16956;BMP180;8594;52.052;8.354;2022-10-22T13:47:52;100494.00;;;19.60
16956;BMP180;8594;52.052;8.354;2022-10-22T13:50:20;100497.00;;;19.40
16956;BMP180;8594;52.052;8.354;2022-10-22T13:52:50;100497.00;;;19.60
16956;BMP180;8594;52.052;8.354;2022-10-22T13:55:22;100488.00;;;19.60
16956;BMP180;8594;52.052;8.354;2022-10-22T13:57:50;100489.00;;;19.40
16956;BMP180;8594;52.052;8.354;2022-10-22T14:00:20;100490.00;;;19.30
16956;BMP180;8594;52.052;8.354;2022-10-22T14:02:52;100492.00;;;19.30
16956;BMP180;8594;52.052;8.354;2022-10-22T14:05:20;100492.00;;;19.30
16956;BMP180;8594;52.052;8.354;2022-10-22T14:07:47;100491.00;;;19.60
16956;BMP180;8594;52.052;8.354;2022-10-22T14:10:19;100493.00;;;19.20
16956;BMP180;8594;52.052;8.354;2022-10-22T14:12:47;100495.00;;;19.40
16956;BMP180;8594;52.052;8.354;2022-10-22T14:15:17;100490.00;;;19.50
16956;BMP180;8594;52.052;8.354;2022-10-22T14:17:47;100497.00;;;19.20
16956;BMP180;8594;52.052;8.354;2022-10-22T14:20:19;100499.00;;;19.40
16956;BMP180;8594;52.052;8.354;2022-10-22T14:22:48;100494.00;;;19.40
16956;BMP180;8594;52.052;8.354;2022-10-22T14:25:18;100493.00;;;19.80
16956;BMP180;8594;52.052;8.354;2022-10-22T14:27:46;100503.00;;;19.60
16956;BMP180;8594;52.052;8.354;2022-10-22T14:30:14;100511.00;;;19.70
16956;BMP180;8594;52.052;8.354;2022-10-22T14:32:42;100506.00;;;19.70
16956;BMP180;8594;52.052;8.354;2022-10-22T14:35:12;100507.00;;;19.80